Time;durP1;ratioP1;P1;durP2;ratioP2;P2;SDS_P1;SDS_P2;PMS_P1;PMS_P2;Temp;Humidity;BMP_temperature;BMP_pressure;BME280_temperature;BME280_humidity;BME280_pressure;Samples;Min_cycle;Max_cycle;Signal;HPM_P1;HPM_P2
2024/01/22 00:01:35;;;;;;;13.60;7.55;;;;;;;;;;5026749;28;20107;-77
2024/01/22 00:04:01;;;;;;;11.07;6.63;;;;;;;;;;5027706;28;20119;-77
2024/01/22 00:06:27;;;;;;;11.95;7.35;;;;;;;;;;5027354;28;20103;-76
2024/01/22 00:08:53;;;;;;;15.13;7.95;;;;;;;;;;5026118;28;20132;-76
2024/01/22 00:11:20;;;;;;;12.43;7.07;;;;;;;;;;5025843;28;20048;-76
2024/01/22 00:13:46;;;;;;;9.60;6.18;;;;;;;;;;5026258;28;20515;-76
2024/01/22 00:16:12;;;;;;;13.55;7.22;;;;;;;;;;5007994;28;20144;-76
2024/01/22 00:18:39;;;;;;;11.43;6.25;;;;;;;;;;5026069;28;20056;-76
2024/01/22 00:21:05;;;;;;;11.15;6.75;;;;;;;;;;5025968;28;20045;-76
2024/01/22 00:23:31;;;;;;;11.30;6.63;;;;;;;;;;5026644;28;20053;-77
2024/01/22 00:25:57;;;;;;;8.30;5.88;;;;;;;;;;5024472;28;20045;-76
2024/01/22 00:28:23;;;;;;;8.85;6.15;;;;;;;;;;5026218;28;20049;-76
2024/01/22 00:30:49;;;;;;;9.25;6.78;;;;;;;;;;5008685;28;20052;-76
2024/01/22 00:33:15;;;;;;;10.90;6.25;;;;;;;;;;5023216;28;20037;-77
2024/01/22 00:35:41;;;;;;;10.95;6.72;;;;;;;;;;5025523;28;20373;-77
2024/01/22 00:38:07;;;;;;;15.18;7.45;;;;;;;;;;5024408;28;20107;-76
2024/01/22 00:40:33;;;;;;;9.00;6.07;;;;;;;;;;5025081;28;20135;-77
2024/01/22 00:42:59;;;;;;;8.07;5.72;;;;;;;;;;5025552;28;20349;-77
2024/01/22 00:45:25;;;;;;;11.02;6.32;;;;;;;;;;5026210;28;20491;-76
2024/01/22 00:47:51;;;;;;;12.68;6.93;;;;;;;;;;5025890;28;20041;-77
2024/01/22 00:50:17;;;;;;;13.02;7.25;;;;;;;;;;5025725;28;20042;-76
2024/01/22 00:52:43;;;;;;;8.85;6.18;;;;;;;;;;5025717;28;20112;-76
2024/01/22 00:55:09;;;;;;;9.73;7.03;;;;;;;;;;5024520;28;20042;-76
2024/01/22 00:57:37;;;;;;;11.57;6.28;;;;;;;;;;5025995;28;20041;-76
2024/01/22 01:00:04;;;;;;;13.80;6.47;;;;;;;;;;5027512;28;20072;-76
2024/01/22 01:02:30;;;;;;;10.05;6.32;;;;;;;;;;5027364;28;20086;-76
2024/01/22 01:04:56;;;;;;;11.38;7.32;;;;;;;;;;5025294;28;20513;-76
2024/01/22 01:07:23;;;;;;;9.90;6.75;;;;;;;;;;5023949;28;20045;-77
2024/01/22 01:09:49;;;;;;;11.93;7.18;;;;;;;;;;5028460;28;20140;-76
2024/01/22 01:12:15;;;;;;;12.00;7.03;;;;;;;;;;5024344;28;20037;-76
2024/01/22 01:14:41;;;;;;;13.25;7.45;;;;;;;;;;5025114;28;20050;-77
2024/01/22 01:17:07;;;;;;;10.18;6.47;;;;;;;;;;5024555;28;20048;-77
2024/01/22 01:19:33;;;;;;;9.85;6.47;;;;;;;;;;5023635;28;20057;-77
2024/01/22 01:21:59;;;;;;;9.77;6.45;;;;;;;;;;5027177;28;20091;-76
2024/01/22 01:24:25;;;;;;;12.55;7.28;;;;;;;;;;5017536;28;20042;-76
2024/01/22 01:26:52;;;;;;;12.43;7.57;;;;;;;;;;5025375;28;20120;-76
2024/01/22 01:29:19;;;;;;;13.98;6.93;;;;;;;;;;5025239;28;20045;-76
2024/01/22 01:31:45;;;;;;;11.40;6.57;;;;;;;;;;5026928;28;20132;-76
2024/01/22 01:34:11;;;;;;;9.35;6.53;;;;;;;;;;5022807;28;20484;-77
2024/01/22 01:36:37;;;;;;;11.10;5.88;;;;;;;;;;5025877;28;20065;-76
2024/01/22 01:39:03;;;;;;;10.98;6.47;;;;;;;;;;5025081;28;20041;-76
2024/01/22 01:41:29;;;;;;;10.55;7.47;;;;;;;;;;5025588;28;20052;-76
2024/01/22 01:43:55;;;;;;;11.65;6.97;;;;;;;;;;5025379;28;20034;-76
2024/01/22 01:46:21;;;;;;;11.68;6.90;;;;;;;;;;5025378;28;20044;-77
2024/01/22 01:48:48;;;;;;;9.68;6.60;;;;;;;;;;5025281;28;20044;-76
2024/01/22 01:51:14;;;;;;;12.93;7.05;;;;;;;;;;5024853;28;20480;-76
2024/01/22 01:53:41;;;;;;;11.95;7.28;;;;;;;;;;5007205;28;20524;-76
2024/01/22 01:56:07;;;;;;;13.30;6.85;;;;;;;;;;5024947;28;20049;-76
2024/01/22 01:58:33;;;;;;;8.45;5.93;;;;;;;;;;5026335;28;20037;-76
2024/01/22 02:01:00;;;;;;;11.35;6.00;;;;;;;;;;5029465;28;21451;-76
2024/01/22 02:03:26;;;;;;;10.60;5.90;;;;;;;;;;5030322;28;20051;-77
2024/01/22 02:05:52;;;;;;;14.23;7.40;;;;;;;;;;5028621;28;20090;-77
2024/01/22 02:08:18;;;;;;;8.45;6.78;;;;;;;;;;5028065;28;20076;-77
2024/01/22 02:10:47;;;;;;;9.38;6.65;;;;;;;;;;5028308;28;20041;-77
2024/01/22 02:13:14;;;;;;;11.30;6.20;;;;;;;;;;5028686;28;20041;-76
2024/01/22 02:15:41;;;;;;;10.55;6.85;;;;;;;;;;5027874;28;20052;-76
2024/01/22 02:18:07;;;;;;;9.77;6.00;;;;;;;;;;5010929;28;20087;-77
2024/01/22 02:20:33;;;;;;;10.63;6.18;;;;;;;;;;5026488;28;20041;-77
2024/01/22 02:23:06;;;;;;;11.02;6.65;;;;;;;;;;5028754;28;20071;-77
2024/01/22 02:25:32;;;;;;;11.02;6.07;;;;;;;;;;5027073;28;20461;-77
2024/01/22 02:27:58;;;;;;;8.48;5.13;;;;;;;;;;5028994;28;20076;-77
2024/01/22 02:30:25;;;;;;;10.73;6.00;;;;;;;;;;5028117;28;20145;-77
2024/01/22 02:32:51;;;;;;;8.25;5.72;;;;;;;;;;5029859;28;20033;-77
2024/01/22 02:35:17;;;;;;;7.95;6.45;;;;;;;;;;5028328;28;20136;-77
2024/01/22 02:37:44;;;;;;;8.35;5.97;;;;;;;;;;5029848;28;20049;-77
2024/01/22 02:40:10;;;;;;;7.85;5.38;;;;;;;;;;5028709;28;20084;-77
2024/01/22 02:42:36;;;;;;;10.80;5.82;;;;;;;;;;5029440;28;20064;-78
2024/01/22 02:45:03;;;;;;;8.80;5.63;;;;;;;;;;5028616;28;20037;-77
2024/01/22 02:47:29;;;;;;;11.45;6.20;;;;;;;;;;5029222;28;20052;-77
2024/01/22 02:49:55;;;;;;;7.00;5.13;;;;;;;;;;5027555;28;20126;-77
2024/01/22 02:52:21;;;;;;;8.60;5.78;;;;;;;;;;5027742;28;20088;-77
2024/01/22 02:54:47;;;;;;;11.55;6.35;;;;;;;;;;5027474;28;20068;-77
2024/01/22 02:57:14;;;;;;;8.80;6.30;;;;;;;;;;5010870;28;20045;-77
2024/01/22 02:59:43;;;;;;;9.88;5.50;;;;;;;;;;5028249;28;20041;-77
2024/01/22 03:02:09;;;;;;;9.95;6.28;;;;;;;;;;5027617;28;20049;-77
2024/01/22 03:04:35;;;;;;;8.60;5.47;;;;;;;;;;5026427;28;20556;-76
2024/01/22 03:07:02;;;;;;;12.20;6.25;;;;;;;;;;5028989;28;20124;-77
2024/01/22 03:09:28;;;;;;;11.32;6.22;;;;;;;;;;5030606;28;20050;-77
2024/01/22 03:11:54;;;;;;;8.43;5.88;;;;;;;;;;5032718;28;20041;-77
2024/01/22 03:14:20;;;;;;;9.90;6.07;;;;;;;;;;5026530;28;20057;-76
2024/01/22 03:16:46;;;;;;;8.90;5.75;;;;;;;;;;5028613;28;20041;-77
2024/01/22 03:19:12;;;;;;;8.20;5.50;;;;;;;;;;5027811;28;20136;-77
2024/01/22 03:21:38;;;;;;;7.80;5.63;;;;;;;;;;5027940;28;20073;-77
2024/01/22 03:24:05;;;;;;;7.22;5.50;;;;;;;;;;5027596;28;20076;-77
2024/01/22 03:26:31;;;;;;;8.70;6.28;;;;;;;;;;5027208;28;20053;-76
2024/01/22 03:28:57;;;;;;;9.50;5.88;;;;;;;;;;5027443;28;20037;-77
2024/01/22 03:31:23;;;;;;;6.85;5.10;;;;;;;;;;5026686;28;20047;-76
2024/01/22 03:33:50;;;;;;;7.40;4.68;;;;;;;;;;5027334;28;20060;-76
2024/01/22 03:36:16;;;;;;;8.18;5.28;;;;;;;;;;5026888;28;20042;-77
2024/01/22 03:38:42;;;;;;;7.78;5.50;;;;;;;;;;5026862;28;20045;-77
2024/01/22 03:41:08;;;;;;;7.70;4.80;;;;;;;;;;5027849;28;20488;-76
2024/01/22 03:43:34;;;;;;;6.63;4.22;;;;;;;;;;5032381;28;20077;-76
2024/01/22 03:46:00;;;;;;;6.57;4.03;;;;;;;;;;5026899;28;20072;-77
2024/01/22 03:48:26;;;;;;;8.00;4.38;;;;;;;;;;5026513;28;20069;-77
2024/01/22 03:50:52;;;;;;;6.40;5.13;;;;;;;;;;5027475;28;20045;-77
2024/01/22 03:53:18;;;;;;;6.28;3.80;;;;;;;;;;5027322;28;20062;-77
2024/01/22 03:55:44;;;;;;;7.68;4.50;;;;;;;;;;5027192;28;20488;-77
2024/01/22 03:58:11;;;;;;;5.40;4.00;;;;;;;;;;5027546;28;20068;-77
2024/01/22 04:00:37;;;;;;;5.45;4.00;;;;;;;;;;5027142;28;20053;-77
2024/01/22 04:03:04;;;;;;;6.90;4.40;;;;;;;;;;5027597;28;20502;-77
2024/01/22 04:05:30;;;;;;;5.65;4.22;;;;;;;;;;5032203;28;20034;-77
2024/01/22 04:07:56;;;;;;;8.05;4.65;;;;;;;;;;5018547;28;20041;-77
2024/01/22 04:10:23;;;;;;;9.40;4.93;;;;;;;;;;5030162;28;20060;-77
2024/01/22 04:12:49;;;;;;;7.78;4.50;;;;;;;;;;5017299;28;20077;-77
2024/01/22 04:15:15;;;;;;;8.20;4.75;;;;;;;;;;5020090;28;20441;-77
2024/01/22 04:17:42;;;;;;;6.28;4.57;;;;;;;;;;5030812;28;20060;-77
2024/01/22 04:20:08;;;;;;;7.93;4.80;;;;;;;;;;5028310;28;20496;-78
2024/01/22 04:22:34;;;;;;;8.18;4.68;;;;;;;;;;5025459;28;20072;-78
2024/01/22 04:25:00;;;;;;;6.70;4.90;;;;;;;;;;5026344;28;20128;-77
2024/01/22 04:27:26;;;;;;;6.82;4.63;;;;;;;;;;5026083;28;20393;-78
2024/01/22 04:29:52;;;;;;;7.13;4.65;;;;;;;;;;5026842;28;20488;-77
2024/01/22 04:32:19;;;;;;;7.95;5.15;;;;;;;;;;5026272;28;20040;-77
2024/01/22 04:34:46;;;;;;;6.05;4.68;;;;;;;;;;5024538;28;20098;-77
2024/01/22 04:37:13;;;;;;;6.03;4.75;;;;;;;;;;5025112;28;20051;-78
2024/01/22 04:39:39;;;;;;;6.60;4.40;;;;;;;;;;5026134;28;20045;-77
2024/01/22 04:42:05;;;;;;;6.07;4.90;;;;;;;;;;5007158;28;20720;-77
2024/01/22 04:44:31;;;;;;;7.78;5.07;;;;;;;;;;5009189;28;20053;-77
2024/01/22 04:46:58;;;;;;;6.45;4.53;;;;;;;;;;5025346;28;20151;-77
2024/01/22 04:49:24;;;;;;;5.88;5.25;;;;;;;;;;5026762;28;20049;-77
2024/01/22 04:51:50;;;;;;;6.05;4.78;;;;;;;;;;5025787;28;20056;-77
2024/01/22 04:54:16;;;;;;;5.07;4.43;;;;;;;;;;5025364;28;20131;-77
2024/01/22 04:56:44;;;;;;;7.18;4.32;;;;;;;;;;5026067;28;20049;-77
2024/01/22 04:59:10;;;;;;;4.75;4.10;;;;;;;;;;5026746;28;20048;-77
2024/01/22 05:01:36;;;;;;;4.93;4.32;;;;;;;;;;5026569;28;20045;-77
2024/01/22 05:04:02;;;;;;;4.95;4.47;;;;;;;;;;5024523;28;20041;-77
2024/01/22 05:06:28;;;;;;;5.57;4.55;;;;;;;;;;5024971;28;20033;-77
2024/01/22 05:08:54;;;;;;;5.63;4.32;;;;;;;;;;5027869;28;20046;-78
2024/01/22 05:11:20;;;;;;;4.78;3.85;;;;;;;;;;5025068;28;20129;-78
2024/01/22 05:13:51;;;;;;;7.15;4.60;;;;;;;;;;5025194;28;20041;-77
2024/01/22 05:16:17;;;;;;;5.85;4.05;;;;;;;;;;5025020;28;20037;-77
2024/01/22 05:18:44;;;;;;;5.25;3.50;;;;;;;;;;5025224;28;20120;-77
2024/01/22 05:21:10;;;;;;;6.45;3.78;;;;;;;;;;5025824;28;20503;-77
2024/01/22 05:23:36;;;;;;;5.38;3.80;;;;;;;;;;5026685;28;20045;-77
2024/01/22 05:26:02;;;;;;;4.13;3.53;;;;;;;;;;5025565;28;20045;-77
2024/01/22 05:28:28;;;;;;;5.32;4.30;;;;;;;;;;5023986;28;20041;-77
2024/01/22 05:30:54;;;;;;;8.48;4.10;;;;;;;;;;5025026;28;20513;-77
2024/01/22 05:33:20;;;;;;;5.80;3.58;;;;;;;;;;5028387;28;20091;-77
2024/01/22 05:35:48;;;;;;;5.32;3.90;;;;;;;;;;5025226;28;21507;-77
2024/01/22 05:38:14;;;;;;;6.95;3.83;;;;;;;;;;5024741;28;20095;-78
2024/01/22 05:40:40;;;;;;;6.13;3.47;;;;;;;;;;5025036;28;20096;-78
2024/01/22 05:43:06;;;;;;;4.38;2.90;;;;;;;;;;5024721;28;20504;-77
2024/01/22 05:45:32;;;;;;;6.07;3.17;;;;;;;;;;5024946;28;20424;-77
2024/01/22 05:47:58;;;;;;;5.28;3.15;;;;;;;;;;5026113;28;20392;-78
2024/01/22 05:50:24;;;;;;;5.90;3.22;;;;;;;;;;5026110;28;20053;-78
2024/01/22 05:52:50;;;;;;;4.97;2.85;;;;;;;;;;5025835;28;20087;-78
2024/01/22 05:55:17;;;;;;;9.15;3.63;;;;;;;;;;5025502;28;20041;-78
2024/01/22 05:57:43;;;;;;;7.30;2.92;;;;;;;;;;5024926;28;20044;-78
2024/01/22 06:00:09;;;;;;;6.40;3.53;;;;;;;;;;5026057;28;20037;-78
2024/01/22 06:02:38;;;;;;;7.47;3.30;;;;;;;;;;5026451;28;20060;-78
2024/01/22 06:05:04;;;;;;;7.35;3.10;;;;;;;;;;5023359;28;20033;-78
2024/01/22 06:07:30;;;;;;;10.63;3.63;;;;;;;;;;5026390;28;20068;-79
2024/01/22 06:09:56;;;;;;;7.32;3.20;;;;;;;;;;5025145;28;20046;-78
2024/01/22 06:12:22;;;;;;;10.82;3.33;;;;;;;;;;5025479;28;20503;-78
2024/01/22 06:14:48;;;;;;;11.23;3.92;;;;;;;;;;5024923;28;20041;-78
2024/01/22 06:17:14;;;;;;;8.65;3.28;;;;;;;;;;5027425;28;20050;-79
2024/01/22 06:19:40;;;;;;;9.32;3.03;;;;;;;;;;5027651;28;20046;-78
2024/01/22 06:22:06;;;;;;;9.60;3.45;;;;;;;;;;5027231;28;20397;-79
2024/01/22 06:24:36;;;;;;;16.48;3.28;;;;;;;;;;5010427;28;20053;-79
2024/01/22 06:27:03;;;;;;;16.05;4.25;;;;;;;;;;5028297;28;21524;-79
2024/01/22 06:29:29;;;;;;;14.27;3.67;;;;;;;;;;5029450;28;20076;-79
2024/01/22 06:31:55;;;;;;;11.20;3.17;;;;;;;;;;5029738;28;20053;-79
2024/01/22 06:34:21;;;;;;;14.15;4.50;;;;;;;;;;5029070;28;20068;-79
2024/01/22 06:36:47;;;;;;;17.00;4.22;;;;;;;;;;5030086;28;20069;-79
2024/01/22 06:39:13;;;;;;;15.73;4.18;;;;;;;;;;5028376;28;20451;-79
2024/01/22 06:41:39;;;;;;;18.92;4.45;;;;;;;;;;5028821;28;20069;-80
2024/01/22 06:44:05;;;;;;;20.80;4.82;;;;;;;;;;5028646;28;20480;-79
2024/01/22 06:46:31;;;;;;;19.65;4.95;;;;;;;;;;5030155;28;20061;-79
2024/01/22 06:48:57;;;;;;;20.58;4.68;;;;;;;;;;5032879;28;20447;-79
2024/01/22 06:51:23;;;;;;;22.63;5.40;;;;;;;;;;5028951;28;20643;-78
2024/01/22 06:53:50;;;;;;;21.42;5.00;;;;;;;;;;5032616;28;20037;-78
2024/01/22 06:56:16;;;;;;;24.35;5.72;;;;;;;;;;5031608;28;20049;-79
2024/01/22 06:58:42;;;;;;;32.63;5.25;;;;;;;;;;5029637;28;20041;-79
2024/01/22 07:01:08;;;;;;;27.67;5.80;;;;;;;;;;5030472;28;20477;-78
2024/01/22 07:03:37;;;;;;;27.58;6.43;;;;;;;;;;5018431;28;20037;-79
2024/01/22 07:06:03;;;;;;;27.38;5.85;;;;;;;;;;5029184;28;20045;-79
2024/01/22 07:08:32;;;;;;;33.70;6.57;;;;;;;;;;5026630;28;20053;-78
2024/01/22 07:10:58;;;;;;;31.00;6.10;;;;;;;;;;5031802;28;20068;-78
2024/01/22 07:13:25;;;;;;;31.13;6.47;;;;;;;;;;5028456;28;20078;-78
2024/01/22 07:15:51;;;;;;;18.77;4.85;;;;;;;;;;5028495;28;20045;-79
2024/01/22 07:18:17;;;;;;;32.92;7.18;;;;;;;;;;5030920;28;20087;-78
2024/01/22 07:20:43;;;;;;;30.88;6.40;;;;;;;;;;5029864;28;20065;-78
2024/01/22 07:23:09;;;;;;;28.98;5.97;;;;;;;;;;5029908;28;20073;-79
2024/01/22 07:25:36;;;;;;;26.23;5.55;;;;;;;;;;5030186;28;20049;-78
2024/01/22 07:28:03;;;;;;;37.40;7.25;;;;;;;;;;5028459;28;20049;-78
2024/01/22 07:30:29;;;;;;;22.27;5.80;;;;;;;;;;5027482;28;20042;-80
2024/01/22 07:32:56;;;;;;;28.83;7.47;;;;;;;;;;5028975;28;20045;-78
2024/01/22 07:35:24;;;;;;;32.92;7.13;;;;;;;;;;5010532;28;20053;-78
2024/01/22 07:37:50;;;;;;;35.97;6.65;;;;;;;;;;5028491;28;20084;-78
2024/01/22 07:40:18;;;;;;;27.30;6.93;;;;;;;;;;5028632;28;20072;-78
2024/01/22 07:42:44;;;;;;;29.02;6.40;;;;;;;;;;5030932;28;20045;-79
2024/01/22 07:45:11;;;;;;;24.70;5.80;;;;;;;;;;5031690;28;20037;-79
2024/01/22 07:47:38;;;;;;;22.83;5.72;;;;;;;;;;5027065;28;20072;-79
2024/01/22 07:50:05;;;;;;;19.15;5.70;;;;;;;;;;5011539;28;20053;-79
2024/01/22 07:52:33;;;;;;;21.33;5.13;;;;;;;;;;5029970;28;20436;-79
2024/01/22 07:54:59;;;;;;;17.58;4.35;;;;;;;;;;5030943;28;20136;-79
2024/01/22 07:57:25;;;;;;;22.05;5.47;;;;;;;;;;5028644;28;20051;-77
2024/01/22 07:59:51;;;;;;;16.17;4.50;;;;;;;;;;5028131;28;20091;-78
2024/01/22 08:02:17;;;;;;;18.17;4.93;;;;;;;;;;5029385;28;20131;-79
2024/01/22 08:04:43;;;;;;;21.25;4.88;;;;;;;;;;5027404;28;20168;-78
2024/01/22 08:07:09;;;;;;;18.38;4.45;;;;;;;;;;5028864;28;20511;-78
2024/01/22 08:09:36;;;;;;;12.70;3.75;;;;;;;;;;5027629;28;20152;-78
2024/01/22 08:12:03;;;;;;;15.60;4.00;;;;;;;;;;5030692;28;20045;-78
2024/01/22 08:14:30;;;;;;;22.90;5.20;;;;;;;;;;5034115;28;20065;-77
2024/01/22 08:16:56;;;;;;;22.23;5.20;;;;;;;;;;5004325;28;20493;-78
2024/01/22 08:19:22;;;;;;;18.58;5.07;;;;;;;;;;5033466;28;20483;-79
2024/01/22 08:21:49;;;;;;;18.83;4.78;;;;;;;;;;5037330;28;20041;-79
2024/01/22 08:24:15;;;;;;;23.55;5.07;;;;;;;;;;5027185;28;20045;-79
2024/01/22 08:26:41;;;;;;;20.70;5.22;;;;;;;;;;5026598;28;20109;-79
2024/01/22 08:29:07;;;;;;;25.90;5.32;;;;;;;;;;5032708;28;20140;-78
2024/01/22 08:31:33;;;;;;;23.27;5.65;;;;;;;;;;5030898;28;20098;-77
2024/01/22 08:34:01;;;;;;;22.65;4.88;;;;;;;;;;5029724;28;20046;-77
2024/01/22 08:36:27;;;;;;;26.70;6.30;;;;;;;;;;5004905;28;20677;-77
2024/01/22 08:38:53;;;;;;;24.20;6.03;;;;;;;;;;5016786;28;20079;-81
2024/01/22 08:41:19;;;;;;;20.80;5.18;;;;;;;;;;5031699;28;20073;-77
2024/01/22 08:43:45;;;;;;;26.65;5.43;;;;;;;;;;5021146;28;20052;-79
2024/01/22 08:46:11;;;;;;;47.53;6.93;;;;;;;;;;5028651;28;20559;-77
2024/01/22 08:48:37;;;;;;;24.10;6.18;;;;;;;;;;5027386;28;20124;-77
2024/01/22 08:51:03;;;;;;;28.60;6.20;;;;;;;;;;5023497;28;20125;-78
2024/01/22 08:53:29;;;;;;;31.17;7.00;;;;;;;;;;5025767;28;20121;-77
2024/01/22 08:55:55;;;;;;;28.95;7.15;;;;;;;;;;5030807;28;20088;-77
2024/01/22 08:58:21;;;;;;;33.55;7.47;;;;;;;;;;5031485;28;20045;-77
2024/01/22 09:00:47;;;;;;;35.58;8.63;;;;;;;;;;5032759;28;20049;-77
2024/01/22 09:03:13;;;;;;;33.80;8.23;;;;;;;;;;5031309;28;20042;-78
2024/01/22 09:05:39;;;;;;;37.88;8.70;;;;;;;;;;5030127;28;20038;-78
2024/01/22 09:08:06;;;;;;;36.58;7.60;;;;;;;;;;5030441;28;20100;-78
2024/01/22 09:10:32;;;;;;;38.45;8.65;;;;;;;;;;5016413;28;20103;-78
2024/01/22 09:12:59;;;;;;;33.25;7.38;;;;;;;;;;5024311;28;20041;-80
2024/01/22 09:15:25;;;;;;;47.40;9.13;;;;;;;;;;5035660;28;20104;-80
2024/01/22 09:17:51;;;;;;;40.42;8.48;;;;;;;;;;5026349;28;20045;-80
2024/01/22 09:20:17;;;;;;;43.45;7.47;;;;;;;;;;5024184;28;20037;-79
2024/01/22 09:22:43;;;;;;;39.80;8.20;;;;;;;;;;5030758;28;20084;-80
2024/01/22 09:25:10;;;;;;;41.20;9.00;;;;;;;;;;5031047;28;20401;-79
2024/01/22 09:27:36;;;;;;;35.75;8.07;;;;;;;;;;5025704;28;20053;-79
2024/01/22 09:30:02;;;;;;;31.10;7.70;;;;;;;;;;5021249;28;20128;-77
2024/01/22 09:32:28;;;;;;;35.50;8.00;;;;;;;;;;5026572;28;20370;-78
2024/01/22 09:34:54;;;;;;;30.52;7.40;;;;;;;;;;5021081;28;20057;-77
2024/01/22 09:37:21;;;;;;;32.85;7.95;;;;;;;;;;5031327;28;20108;-77
2024/01/22 09:39:47;;;;;;;27.40;5.82;;;;;;;;;;5032644;28;20124;-77
2024/01/22 09:42:13;;;;;;;32.30;7.22;;;;;;;;;;5027694;28;20054;-77
2024/01/22 09:44:40;;;;;;;27.25;6.45;;;;;;;;;;5024069;28;20129;-77
2024/01/22 09:47:06;;;;;;;36.28;8.50;;;;;;;;;;5030107;28;20037;-77
2024/01/22 09:49:32;;;;;;;28.35;6.05;;;;;;;;;;5032437;28;20518;-77
2024/01/22 09:51:58;;;;;;;29.10;5.75;;;;;;;;;;5014497;28;20034;-77
2024/01/22 09:54:25;;;;;;;35.33;8.15;;;;;;;;;;5013037;28;20152;-77
2024/01/22 09:56:52;;;;;;;28.98;6.85;;;;;;;;;;5031147;28;20037;-77
2024/01/22 09:59:23;;;;;;;32.75;6.05;;;;;;;;;;5022688;28;20060;-77
2024/01/22 10:01:49;;;;;;;35.22;6.32;;;;;;;;;;5031292;28;20485;-77
2024/01/22 10:04:16;;;;;;;33.10;7.00;;;;;;;;;;5027384;28;20493;-77
2024/01/22 10:06:43;;;;;;;28.83;5.97;;;;;;;;;;5032217;28;20072;-77
2024/01/22 10:09:10;;;;;;;21.88;5.05;;;;;;;;;;5019413;28;20469;-78
2024/01/22 10:11:36;;;;;;;28.42;6.05;;;;;;;;;;5019591;28;20057;-78
2024/01/22 10:14:02;;;;;;;26.13;5.22;;;;;;;;;;5020540;28;20085;-77
2024/01/22 10:16:29;;;;;;;27.10;6.55;;;;;;;;;;5032505;28;20056;-77
2024/01/22 10:18:57;;;;;;;28.70;6.18;;;;;;;;;;5032234;28;20128;-77
2024/01/22 10:21:23;;;;;;;26.63;6.25;;;;;;;;;;5028722;28;20038;-77
2024/01/22 10:23:57;;;;;;;18.20;4.90;;;;;;;;;;5016029;28;20085;-78
2024/01/22 10:26:23;;;;;;;19.27;5.43;;;;;;;;;;5026434;28;20056;-78
2024/01/22 10:28:49;;;;;;;20.98;5.18;;;;;;;;;;5027355;28;20053;-76
2024/01/22 10:31:15;;;;;;;20.27;5.15;;;;;;;;;;5033609;28;20096;-75
2024/01/22 10:33:41;;;;;;;19.98;4.75;;;;;;;;;;5029563;28;20049;-75
2024/01/22 10:36:15;;;;;;;17.08;5.07;;;;;;;;;;5034032;28;20045;-75
2024/01/22 10:38:41;;;;;;;17.35;4.32;;;;;;;;;;5030225;28;20056;-75
2024/01/22 10:41:26;;;;;;;18.58;3.70;;;;;;;;;;5014509;28;20455;-75
2024/01/22 10:43:52;;;;;;;17.25;3.90;;;;;;;;;;5029408;28;20503;-75
2024/01/22 10:46:19;;;;;;;10.82;3.40;;;;;;;;;;5029701;28;20042;-76
2024/01/22 10:48:46;;;;;;;12.00;3.65;;;;;;;;;;5033373;28;20144;-76
2024/01/22 10:51:13;;;;;;;16.95;4.07;;;;;;;;;;5023021;28;20052;-76
2024/01/22 10:53:39;;;;;;;15.77;3.97;;;;;;;;;;5034717;28;20093;-76
2024/01/22 10:56:08;;;;;;;17.45;4.07;;;;;;;;;;5035729;28;20122;-76
2024/01/22 10:58:44;;;;;;;13.85;4.20;;;;;;;;;;5031307;28;20092;-76
2024/01/22 11:01:19;;;;;;;21.65;4.75;;;;;;;;;;5021675;28;20468;-75
2024/01/22 11:03:56;;;;;;;24.60;5.17;;;;;;;;;;5030380;28;20054;-76
2024/01/22 11:06:23;;;;;;;22.40;5.68;;;;;;;;;;5034485;28;20482;-75
2024/01/22 11:08:56;;;;;;;18.23;4.82;;;;;;;;;;5033851;28;20046;-76
2024/01/22 11:11:25;;;;;;;23.30;4.90;;;;;;;;;;5025835;28;20099;-75
2024/01/22 11:13:55;;;;;;;24.40;4.22;;;;;;;;;;5026721;28;20378;-75
2024/01/22 11:16:21;;;;;;;17.40;4.65;;;;;;;;;;5030648;28;20498;-75
2024/01/22 11:19:01;;;;;;;20.50;5.13;;;;;;;;;;5028871;28;20040;-75
2024/01/22 11:21:34;;;;;;;19.05;5.00;;;;;;;;;;5031453;28;20545;-76
2024/01/22 11:24:09;;;;;;;23.77;4.82;;;;;;;;;;5031861;28;20052;-75
2024/01/22 11:26:35;;;;;;;21.58;5.32;;;;;;;;;;5032567;28;20041;-76
2024/01/22 11:29:08;;;;;;;21.55;5.10;;;;;;;;;;5026760;28;20086;-75
2024/01/22 11:31:35;;;;;;;21.67;4.88;;;;;;;;;;5027108;28;20049;-75
2024/01/22 11:34:02;;;;;;;18.70;4.95;;;;;;;;;;5019954;28;20053;-76
2024/01/22 11:36:53;;;;;;;18.27;4.28;;;;;;;;;;5034899;28;20034;-76
2024/01/22 11:39:43;;;;;;;13.82;4.47;;;;;;;;;;5005581;28;20419;-76
2024/01/22 11:42:25;;;;;;;17.55;5.68;;;;;;;;;;5020356;28;20132;-75
2024/01/22 11:44:51;;;;;;;19.33;4.55;;;;;;;;;;5030910;28;20532;-76
2024/01/22 11:47:18;;;;;;;18.45;4.55;;;;;;;;;;5024972;28;20124;-76
2024/01/22 11:49:44;;;;;;;16.40;4.57;;;;;;;;;;5022111;28;20398;-75
2024/01/22 11:52:10;;;;;;;22.35;4.97;;;;;;;;;;5024749;28;20045;-76
2024/01/22 11:54:37;;;;;;;18.92;4.40;;;;;;;;;;5030900;28;20129;-76
2024/01/22 11:57:03;;;;;;;17.17;4.10;;;;;;;;;;5020739;28;20033;-75
2024/01/22 11:59:30;;;;;;;21.50;4.47;;;;;;;;;;5018046;28;20121;-75
2024/01/22 12:02:05;;;;;;;19.05;4.60;;;;;;;;;;5022071;28;20056;-75
2024/01/22 12:04:31;;;;;;;17.30;5.07;;;;;;;;;;5032429;28;20041;-75
2024/01/22 12:06:57;;;;;;;14.18;3.80;;;;;;;;;;5022937;28;20046;-75
2024/01/22 12:09:23;;;;;;;17.23;4.72;;;;;;;;;;5027821;28;20045;-75
2024/01/22 12:11:53;;;;;;;18.25;4.93;;;;;;;;;;5014397;28;20046;-75
2024/01/22 12:14:19;;;;;;;22.27;4.00;;;;;;;;;;5032969;28;20100;-75
2024/01/22 12:16:45;;;;;;;22.70;4.75;;;;;;;;;;5030336;28;20057;-75
2024/01/22 12:19:12;;;;;;;18.05;4.88;;;;;;;;;;5029183;28;20045;-75
2024/01/22 12:21:39;;;;;;;16.92;4.80;;;;;;;;;;5033827;28;20561;-76
2024/01/22 12:24:14;;;;;;;17.45;4.30;;;;;;;;;;5033720;28;20514;-76
2024/01/22 12:26:40;;;;;;;19.70;4.53;;;;;;;;;;5031688;28;20049;-75
2024/01/22 12:29:06;;;;;;;14.73;4.07;;;;;;;;;;5020954;28;20051;-75
2024/01/22 12:31:32;;;;;;;25.83;5.10;;;;;;;;;;5020563;28;20048;-75
2024/01/22 12:34:11;;;;;;;21.73;5.07;;;;;;;;;;5020938;28;20120;-75
2024/01/22 12:36:37;;;;;;;17.38;3.90;;;;;;;;;;5021772;28;20092;-75
2024/01/22 12:39:06;;;;;;;19.33;5.20;;;;;;;;;;5022449;28;20052;-75
2024/01/22 12:41:32;;;;;;;17.23;4.13;;;;;;;;;;5032922;28;20045;-75
2024/01/22 12:43:58;;;;;;;22.38;5.05;;;;;;;;;;5024227;28;20137;-75
2024/01/22 12:46:24;;;;;;;16.42;4.22;;;;;;;;;;5029351;28;20127;-75
2024/01/22 12:48:55;;;;;;;18.30;4.47;;;;;;;;;;5024265;28;20123;-75
2024/01/22 12:51:25;;;;;;;25.42;5.28;;;;;;;;;;5025569;28;20107;-75
2024/01/22 12:53:51;;;;;;;21.77;5.20;;;;;;;;;;5013757;28;20065;-75
2024/01/22 12:56:17;;;;;;;19.52;4.53;;;;;;;;;;5030647;28;20052;-75
2024/01/22 12:58:43;;;;;;;12.60;4.03;;;;;;;;;;5023260;28;20046;-75
2024/01/22 13:01:10;;;;;;;19.98;5.25;;;;;;;;;;5026405;28;20461;-75
2024/01/22 13:03:37;;;;;;;25.30;5.45;;;;;;;;;;5022048;28;20057;-76
2024/01/22 13:06:04;;;;;;;24.42;5.28;;;;;;;;;;5021712;28;20536;-76
2024/01/22 13:08:30;;;;;;;22.98;5.20;;;;;;;;;;5024041;28;20045;-76
2024/01/22 13:10:57;;;;;;;14.93;4.68;;;;;;;;;;5024165;28;20081;-76
2024/01/22 13:13:23;;;;;;;22.98;4.72;;;;;;;;;;5024047;28;20041;-76
2024/01/22 13:15:49;;;;;;;23.65;6.05;;;;;;;;;;5031131;28;20465;-75
2024/01/22 13:18:15;;;;;;;26.40;6.43;;;;;;;;;;5031587;28;20511;-75
2024/01/22 13:20:41;;;;;;;20.98;5.53;;;;;;;;;;5015879;28;20049;-75
2024/01/22 13:23:07;;;;;;;18.50;5.00;;;;;;;;;;5023558;28;20099;-76
2024/01/22 13:25:33;;;;;;;24.70;6.28;;;;;;;;;;5032132;28;20042;-75
2024/01/22 13:28:00;;;;;;;26.08;5.82;;;;;;;;;;5032897;28;20045;-75
2024/01/22 13:30:26;;;;;;;19.00;4.50;;;;;;;;;;5017100;28;20042;-75
2024/01/22 13:32:53;;;;;;;25.27;5.65;;;;;;;;;;5024265;28;20079;-75
2024/01/22 13:35:20;;;;;;;27.20;6.22;;;;;;;;;;5028324;28;20504;-75
2024/01/22 13:37:46;;;;;;;23.98;5.72;;;;;;;;;;5022554;28;20049;-75
2024/01/22 13:40:12;;;;;;;22.58;5.20;;;;;;;;;;5026112;28;20120;-77
2024/01/22 13:42:38;;;;;;;28.13;5.45;;;;;;;;;;5014663;28;20045;-77
2024/01/22 13:45:04;;;;;;;18.60;5.75;;;;;;;;;;5030165;28;20453;-78
2024/01/22 13:47:31;;;;;;;20.50;5.40;;;;;;;;;;5029612;28;20048;-77
2024/01/22 13:50:02;;;;;;;24.08;5.40;;;;;;;;;;5031853;28;20428;-77
2024/01/22 13:52:29;;;;;;;23.17;5.40;;;;;;;;;;5032578;28;20049;-77
2024/01/22 13:54:55;;;;;;;22.63;4.97;;;;;;;;;;5035009;28;20123;-77
2024/01/22 13:57:21;;;;;;;27.17;5.88;;;;;;;;;;5033466;28;20037;-77
2024/01/22 13:59:47;;;;;;;23.20;5.32;;;;;;;;;;5021058;28;20042;-78
2024/01/22 14:02:13;;;;;;;25.55;5.35;;;;;;;;;;5024174;28;20485;-78
2024/01/22 14:04:43;;;;;;;20.98;5.07;;;;;;;;;;5026527;28;20072;-77
2024/01/22 14:07:09;;;;;;;22.10;5.05;;;;;;;;;;5039161;28;20088;-77
2024/01/22 14:09:35;;;;;;;20.48;4.85;;;;;;;;;;5015095;28;20045;-77
2024/01/22 14:12:01;;;;;;;27.00;5.38;;;;;;;;;;5032377;28;20099;-77
2024/01/22 14:14:27;;;;;;;23.50;5.13;;;;;;;;;;5028314;28;20057;-77
2024/01/22 14:16:54;;;;;;;27.65;6.15;;;;;;;;;;5029216;28;20045;-77
2024/01/22 14:19:21;;;;;;;23.00;4.97;;;;;;;;;;5018768;28;20046;-77
2024/01/22 14:21:50;;;;;;;21.05;6.97;;;;;;;;;;5031744;28;20551;-77
2024/01/22 14:24:16;;;;;;;27.05;4.95;;;;;;;;;;5031911;28;20057;-77
2024/01/22 14:26:46;;;;;;;19.40;4.63;;;;;;;;;;5036255;28;20104;-78
2024/01/22 14:29:12;;;;;;;32.28;5.80;;;;;;;;;;5020182;28;20133;-77
2024/01/22 14:31:38;;;;;;;21.88;5.25;;;;;;;;;;5029173;28;20049;-77